createdAt,value
2023-07-06T00:00:33.971Z,5.63
2023-07-06T00:03:24.797Z,5.18
2023-07-06T00:05:53.169Z,5.22
2023-07-06T00:08:22.020Z,5.57
2023-07-06T00:10:51.637Z,5.75
2023-07-06T00:13:21.763Z,6.38
2023-07-06T00:15:50.520Z,5.65
2023-07-06T00:18:22.107Z,6.28
2023-07-06T00:20:51.701Z,7.70
2023-07-06T00:23:21.453Z,7.35
2023-07-06T00:25:49.726Z,8.20
2023-07-06T00:28:26.177Z,8.35
2023-07-06T00:30:58.678Z,8.57
2023-07-06T00:33:27.394Z,7.07
2023-07-06T00:35:57.169Z,7.65
2023-07-06T00:38:26.252Z,7.35
2023-07-06T00:40:57.561Z,6.10
2023-07-06T00:43:28.277Z,7.20
2023-07-06T00:45:58.509Z,6.25
2023-07-06T00:48:28.936Z,5.88
2023-07-06T00:51:01.743Z,5.93
2023-07-06T00:53:34.184Z,5.80
2023-07-06T00:56:03.109Z,6.38
2023-07-06T00:58:35.232Z,4.90
2023-07-06T01:04:09.479Z,4.97
2023-07-06T01:06:43.529Z,5.10
2023-07-06T01:09:11.887Z,5.07
2023-07-06T01:11:42.200Z,5.00
2023-07-06T01:14:13.374Z,5.22
2023-07-06T01:16:45.065Z,5.15
2023-07-06T01:19:26.732Z,5.32
2023-07-06T01:22:03.068Z,5.28
2023-07-06T01:24:45.714Z,4.47
2023-07-06T01:27:34.132Z,5.13
2023-07-06T01:30:22.350Z,5.13
2023-07-06T01:32:56.223Z,4.80
2023-07-06T01:35:28.710Z,5.38
2023-07-06T01:37:58.938Z,5.70
2023-07-06T01:40:26.887Z,5.00
2023-07-06T01:42:55.056Z,5.32
2023-07-06T01:45:25.047Z,5.00
2023-07-06T01:47:57.070Z,5.78
2023-07-06T01:50:30.318Z,5.45
2023-07-06T01:53:10.952Z,5.28
2023-07-06T01:55:42.574Z,5.57
2023-07-06T01:58:16.576Z,5.30
2023-07-06T02:00:49.812Z,6.30
2023-07-06T02:03:20.047Z,5.43
2023-07-06T02:05:48.416Z,6.38
2023-07-06T02:08:16.801Z,5.82
2023-07-06T02:10:44.828Z,6.00
2023-07-06T02:13:13.783Z,5.93
2023-07-06T02:15:42.297Z,6.05
2023-07-06T02:18:10.609Z,5.70
2023-07-06T02:20:39.856Z,6.32
2023-07-06T02:23:09.225Z,6.57
2023-07-06T02:25:37.567Z,6.35
2023-07-06T02:28:06.302Z,6.47
2023-07-06T02:30:34.392Z,6.35
2023-07-06T02:33:03.711Z,5.97
2023-07-06T02:35:33.661Z,6.15
2023-07-06T02:38:03.411Z,6.40
2023-07-06T02:40:33.139Z,5.85
2023-07-06T02:43:02.440Z,5.78
2023-07-06T02:45:30.920Z,6.03
2023-07-06T02:47:59.807Z,5.65
2023-07-06T02:50:28.009Z,6.25
2023-07-06T02:52:56.166Z,6.30
2023-07-06T02:55:27.660Z,6.22
2023-07-06T02:57:56.314Z,7.22
2023-07-06T03:00:24.915Z,6.07
2023-07-06T03:02:53.494Z,6.32
2023-07-06T03:05:23.873Z,5.60
2023-07-06T03:07:53.990Z,6.03
2023-07-06T03:10:23.443Z,5.40
2023-07-06T03:12:53.306Z,5.75
2023-07-06T03:15:21.668Z,6.25
2023-07-06T03:17:51.884Z,6.75
2023-07-06T03:20:22.077Z,6.95
2023-07-06T03:22:52.425Z,5.95
2023-07-06T03:25:21.539Z,6.47
2023-07-06T03:27:49.896Z,6.28
2023-07-06T03:30:22.776Z,5.22
2023-07-06T03:32:51.483Z,6.15
2023-07-06T03:35:23.059Z,6.70
2023-07-06T03:37:51.346Z,5.97
2023-07-06T03:40:19.873Z,6.10
2023-07-06T03:42:50.149Z,6.05
2023-07-06T03:45:19.697Z,6.63
2023-07-06T03:47:49.246Z,6.35
2023-07-06T03:50:19.193Z,5.47
2023-07-06T03:52:47.616Z,6.00
2023-07-06T03:55:18.174Z,5.30
2023-07-06T03:58:02.930Z,6.10
2023-07-06T04:00:35.599Z,6.07
2023-07-06T04:03:05.102Z,5.93
2023-07-06T04:05:36.120Z,5.10
2023-07-06T04:08:06.738Z,6.00
2023-07-06T04:10:36.431Z,5.90
2023-07-06T04:13:05.257Z,6.05
2023-07-06T04:15:35.736Z,5.55
2023-07-06T04:18:06.491Z,5.57
2023-07-06T04:20:36.312Z,5.60
2023-07-06T04:23:04.999Z,6.00
2023-07-06T04:25:34.880Z,5.93
2023-07-06T04:28:05.065Z,6.28
2023-07-06T04:30:35.358Z,5.78
2023-07-06T04:33:05.142Z,6.40
2023-07-06T04:35:33.890Z,6.88
2023-07-06T04:38:02.480Z,5.80
2023-07-06T04:40:31.053Z,7.15
2023-07-06T04:42:59.398Z,6.43
2023-07-06T04:45:28.449Z,6.47
2023-07-06T04:47:59.884Z,6.70
2023-07-06T04:50:28.258Z,7.25
2023-07-06T04:52:58.422Z,6.03
2023-07-06T04:55:32.748Z,6.00
2023-07-06T04:58:02.337Z,6.68
2023-07-06T05:00:31.986Z,6.47
2023-07-06T05:03:04.597Z,6.32
2023-07-06T05:05:35.723Z,6.40
2023-07-06T05:08:05.697Z,5.87
2023-07-06T05:10:35.406Z,6.28
2023-07-06T05:13:03.995Z,5.78
2023-07-06T05:15:32.126Z,5.65
2023-07-06T05:18:02.601Z,5.90
2023-07-06T05:20:32.190Z,6.60
2023-07-06T05:23:01.107Z,5.70
2023-07-06T05:25:29.457Z,5.93
2023-07-06T05:27:57.665Z,6.20
2023-07-06T05:30:25.709Z,5.65
2023-07-06T05:32:53.984Z,6.10
2023-07-06T05:35:24.570Z,6.20
2023-07-06T05:37:53.234Z,6.22
2023-07-06T05:40:21.265Z,5.68
2023-07-06T05:42:49.724Z,5.75
2023-07-06T05:45:17.857Z,5.50
2023-07-06T05:47:46.421Z,5.53
2023-07-06T05:50:14.851Z,5.13
2023-07-06T05:52:44.581Z,5.22
2023-07-06T05:55:12.655Z,5.80
2023-07-06T05:57:41.022Z,4.78
2023-07-06T06:00:11.445Z,4.85
2023-07-06T06:02:41.131Z,4.55
2023-07-06T06:05:09.908Z,4.20
2023-07-06T06:07:39.625Z,5.18
2023-07-06T06:10:09.528Z,5.00
2023-07-06T06:12:37.906Z,4.93
2023-07-06T06:15:09.165Z,5.13
2023-07-06T06:17:39.259Z,5.50
2023-07-06T06:20:09.799Z,4.78
2023-07-06T06:22:39.042Z,4.30
2023-07-06T06:25:09.412Z,4.97
2023-07-06T06:27:37.644Z,5.32
2023-07-06T06:30:07.320Z,5.35
2023-07-06T06:32:37.178Z,4.70
2023-07-06T06:35:05.758Z,4.78
2023-07-06T06:37:34.261Z,4.30
2023-07-06T06:40:03.819Z,5.00
2023-07-06T06:42:34.086Z,5.65
2023-07-06T06:45:02.003Z,10.27
2023-07-06T06:47:30.333Z,5.82
2023-07-06T06:49:58.468Z,5.93
2023-07-06T06:52:27.907Z,4.97
2023-07-06T06:54:55.878Z,4.65
2023-07-06T06:57:24.942Z,4.75
2023-07-06T06:59:54.448Z,4.88
2023-07-06T07:02:23.448Z,6.03
2023-07-06T07:04:51.677Z,5.70
2023-07-06T07:07:20.307Z,4.53
2023-07-06T07:09:48.444Z,4.50
2023-07-06T07:12:16.761Z,4.53
2023-07-06T07:14:44.832Z,4.88
2023-07-06T07:17:15.904Z,4.45
2023-07-06T07:19:45.795Z,4.72
2023-07-06T07:22:15.041Z,5.27
2023-07-06T07:24:43.438Z,4.60
2023-07-06T07:27:13.225Z,4.40
2023-07-06T07:29:43.902Z,4.70
2023-07-06T07:32:12.361Z,4.38
2023-07-06T07:34:44.739Z,6.28
2023-07-06T07:37:15.297Z,4.70
2023-07-06T07:39:43.317Z,4.65
2023-07-06T07:42:11.591Z,4.65
2023-07-06T07:44:39.708Z,5.35
2023-07-06T07:47:08.187Z,8.55
2023-07-06T07:49:37.048Z,14.68
2023-07-06T07:52:09.501Z,9.40
2023-07-06T07:54:37.441Z,7.80
2023-07-06T07:57:06.180Z,4.47
2023-07-06T07:59:34.408Z,31.98
2023-07-06T08:02:02.718Z,5.85
2023-07-06T08:04:31.206Z,5.13
2023-07-06T08:06:59.681Z,5.35
2023-07-06T08:09:29.441Z,6.20
2023-07-06T08:11:57.900Z,5.28
2023-07-06T08:14:36.942Z,5.70
2023-07-06T08:17:06.595Z,4.60
2023-07-06T08:19:56.998Z,4.35
2023-07-06T08:22:24.103Z,4.25
2023-07-06T08:24:53.651Z,5.25
2023-07-06T08:27:23.533Z,5.07
2023-07-06T08:29:52.352Z,4.93
2023-07-06T08:32:23.400Z,5.20
2023-07-06T08:34:52.685Z,4.70
2023-07-06T08:37:21.691Z,4.93
2023-07-06T08:39:49.857Z,5.32
2023-07-06T08:42:22.457Z,4.32
2023-07-06T08:44:53.449Z,4.47
2023-07-06T08:47:26.572Z,4.85
2023-07-06T08:49:55.413Z,4.53
2023-07-06T08:52:24.381Z,4.43
2023-07-06T08:54:53.556Z,4.30
2023-07-06T08:57:26.203Z,4.40
2023-07-06T08:59:54.407Z,5.22
2023-07-06T09:02:24.678Z,4.75
2023-07-06T09:04:55.385Z,3.88
2023-07-06T09:07:29.272Z,3.87
2023-07-06T09:10:06.945Z,4.07
2023-07-06T09:12:43.586Z,3.72
2023-07-06T09:15:13.054Z,3.90
2023-07-06T09:17:46.775Z,3.90
2023-07-06T09:20:16.793Z,3.72
2023-07-06T09:22:45.963Z,3.38
2023-07-06T09:25:19.195Z,3.40
2023-07-06T09:27:51.293Z,3.72
2023-07-06T09:30:30.869Z,3.67
2023-07-06T09:33:08.054Z,3.78
2023-07-06T09:35:37.829Z,4.90
2023-07-06T09:38:07.746Z,3.95
2023-07-06T09:40:36.419Z,3.28
2023-07-06T09:43:06.211Z,4.05
2023-07-06T09:45:35.471Z,3.60
2023-07-06T09:48:08.386Z,3.92
2023-07-06T09:50:40.078Z,3.38
2023-07-06T09:53:13.231Z,3.42
2023-07-06T09:55:41.291Z,3.97
2023-07-06T09:58:17.012Z,4.03
2023-07-06T10:00:50.994Z,4.43
2023-07-06T10:03:29.533Z,3.83
2023-07-06T10:06:03.282Z,4.22
2023-07-06T10:08:35.201Z,4.10
2023-07-06T10:11:10.771Z,3.50
2023-07-06T10:13:45.346Z,3.97
2023-07-06T10:16:22.552Z,3.55
2023-07-06T10:18:53.387Z,4.32
2023-07-06T10:21:28.593Z,3.65
2023-07-06T10:24:04.599Z,3.85
2023-07-06T10:26:34.955Z,3.97
2023-07-06T10:29:06.662Z,3.80
2023-07-06T10:31:42.766Z,3.42
2023-07-06T10:34:16.267Z,3.92
2023-07-06T10:36:45.323Z,3.97
2023-07-06T10:39:15.551Z,3.75
2023-07-06T10:41:50.824Z,4.03
2023-07-06T10:44:47.452Z,4.45
2023-07-06T10:47:39.856Z,4.22
2023-07-06T10:50:27.906Z,4.18
2023-07-06T10:53:02.220Z,3.60
2023-07-06T10:55:36.065Z,3.90
2023-07-06T10:58:13.806Z,3.75
2023-07-06T11:00:45.469Z,4.25
2023-07-06T11:03:17.111Z,4.10
2023-07-06T11:05:55.765Z,4.20
2023-07-06T11:09:04.808Z,4.40
2023-07-06T11:11:36.284Z,4.03
2023-07-06T11:14:32.656Z,4.40
2023-07-06T11:17:07.075Z,3.85
2023-07-06T11:19:37.787Z,3.72
2023-07-06T11:22:08.130Z,4.57
2023-07-06T11:24:41.556Z,4.07
2023-07-06T11:27:24.402Z,3.83
2023-07-06T11:29:56.006Z,4.22
2023-07-06T11:35:33.815Z,4.32
2023-07-06T11:38:20.647Z,3.90
2023-07-06T11:41:10.420Z,4.50
2023-07-06T11:43:50.306Z,5.35
2023-07-06T11:46:28.713Z,4.95
2023-07-06T11:49:10.800Z,4.75
2023-07-06T11:51:39.418Z,4.43
2023-07-06T11:54:08.916Z,4.55
2023-07-06T11:56:51.885Z,4.60
2023-07-06T11:59:37.720Z,4.78
2023-07-06T12:02:15.659Z,4.93
2023-07-06T12:04:47.503Z,4.10
2023-07-06T12:07:28.969Z,4.28
2023-07-06T12:10:03.971Z,4.43
2023-07-06T12:12:34.182Z,4.32
2023-07-06T12:15:06.742Z,5.05
2023-07-06T12:17:34.725Z,4.80
2023-07-06T12:20:09.701Z,4.60
2023-07-06T12:22:37.629Z,4.10
2023-07-06T12:25:09.186Z,4.82
2023-07-06T12:27:37.144Z,4.65
2023-07-06T12:30:08.029Z,3.90
2023-07-06T12:32:37.988Z,3.92
2023-07-06T12:35:12.644Z,3.72
2023-07-06T12:37:42.677Z,4.80
2023-07-06T12:40:20.707Z,4.13
2023-07-06T12:42:48.802Z,4.40
2023-07-06T12:45:18.211Z,4.50
2023-07-06T12:47:46.251Z,5.13
2023-07-06T12:50:27.830Z,4.50
2023-07-06T12:53:03.833Z,4.70
2023-07-06T12:55:33.747Z,3.95
2023-07-06T12:58:17.222Z,4.25
2023-07-06T13:00:49.472Z,4.07
2023-07-06T13:03:17.878Z,3.92
2023-07-06T13:05:56.826Z,3.95
2023-07-06T13:08:26.004Z,4.18
2023-07-06T13:11:03.624Z,4.10
2023-07-06T13:13:36.467Z,3.88
2023-07-06T13:16:10.960Z,3.17
2023-07-06T13:18:40.008Z,4.30
2023-07-06T13:21:16.543Z,3.83
2023-07-06T13:23:44.698Z,4.43
2023-07-06T13:26:13.253Z,4.13
2023-07-06T13:28:41.353Z,3.60
2023-07-06T13:31:13.718Z,3.78
2023-07-06T13:33:42.029Z,3.72
2023-07-06T13:36:16.653Z,4.50
2023-07-06T13:38:44.884Z,3.92
2023-07-06T13:41:15.242Z,3.50
2023-07-06T13:43:43.150Z,3.80
2023-07-06T13:46:12.163Z,3.40
2023-07-06T13:48:40.542Z,3.60
2023-07-06T13:51:08.828Z,3.72
2023-07-06T13:53:39.535Z,4.45
2023-07-06T13:56:08.140Z,3.55
2023-07-06T13:58:38.220Z,3.92
2023-07-06T14:01:07.529Z,3.85
2023-07-06T14:03:35.697Z,3.47
2023-07-06T14:06:04.788Z,3.60
2023-07-06T14:08:33.622Z,3.70
2023-07-06T14:11:03.691Z,3.90
2023-07-06T14:13:32.222Z,4.20
2023-07-06T14:16:01.698Z,3.72
2023-07-06T14:18:29.890Z,4.25
2023-07-06T14:21:06.322Z,3.85
2023-07-06T14:23:35.817Z,3.75
2023-07-06T14:26:06.034Z,4.05
2023-07-06T14:28:34.338Z,3.63
2023-07-06T14:31:04.465Z,3.58
2023-07-06T14:33:32.982Z,3.58
2023-07-06T14:36:01.284Z,3.78
2023-07-06T14:38:29.903Z,4.32
2023-07-06T14:41:02.503Z,4.40
2023-07-06T14:43:33.947Z,4.03
2023-07-06T14:46:03.357Z,4.30
2023-07-06T14:48:31.504Z,4.20
2023-07-06T14:51:07.147Z,4.28
2023-07-06T14:53:36.419Z,4.13
2023-07-06T14:56:05.374Z,4.35
2023-07-06T14:58:35.087Z,3.58
2023-07-06T15:01:03.368Z,3.60
2023-07-06T15:03:31.439Z,3.60
2023-07-06T15:06:04.208Z,3.72
2023-07-06T15:08:32.930Z,3.63
2023-07-06T15:11:01.248Z,4.32
2023-07-06T15:13:29.512Z,3.67
2023-07-06T15:15:59.800Z,4.15
2023-07-06T15:18:28.147Z,3.42
2023-07-06T15:21:10.190Z,4.18
2023-07-06T15:26:06.553Z,4.03
2023-07-06T15:28:34.926Z,4.07
2023-07-06T15:31:05.013Z,4.40
2023-07-06T15:33:33.326Z,4.18
2023-07-06T15:36:01.947Z,3.92
2023-07-06T15:38:29.880Z,3.47
2023-07-06T15:40:58.485Z,4.03
2023-07-06T15:43:26.581Z,4.13
2023-07-06T15:45:55.083Z,4.60
2023-07-06T15:48:24.932Z,4.18
2023-07-06T15:50:53.641Z,4.70
2023-07-06T15:53:22.624Z,4.25
2023-07-06T15:55:50.893Z,4.15
2023-07-06T15:58:19.150Z,4.38
2023-07-06T16:00:52.731Z,4.45
2023-07-06T16:03:21.430Z,4.55
2023-07-06T16:05:51.131Z,4.78
2023-07-06T16:08:22.273Z,4.80
2023-07-06T16:10:52.182Z,4.25
2023-07-06T16:13:20.616Z,4.38
2023-07-06T16:15:49.762Z,4.25
2023-07-06T16:18:17.833Z,4.40
2023-07-06T16:20:54.655Z,4.93
2023-07-06T16:23:22.638Z,5.28
2023-07-06T16:25:50.951Z,4.10
2023-07-06T16:28:19.197Z,4.35
2023-07-06T16:30:47.592Z,4.32
2023-07-06T16:33:15.789Z,4.20
2023-07-06T16:35:43.987Z,4.05
2023-07-06T16:38:13.556Z,4.95
2023-07-06T16:40:41.985Z,4.53
2023-07-06T16:43:09.908Z,4.80
2023-07-06T16:45:38.094Z,5.05
2023-07-06T16:48:06.747Z,5.28
2023-07-06T16:50:35.779Z,7.32
2023-07-06T16:53:03.742Z,8.95
2023-07-06T16:55:33.390Z,6.82
2023-07-06T16:58:01.452Z,9.70
2023-07-06T17:00:29.879Z,9.57
2023-07-06T17:02:58.041Z,5.47
2023-07-06T17:05:26.705Z,4.85
2023-07-06T17:07:54.797Z,5.22
2023-07-06T17:10:24.467Z,6.43
2023-07-06T17:12:53.806Z,5.75
2023-07-06T17:15:22.288Z,6.07
2023-07-06T17:17:50.636Z,5.70
2023-07-06T17:20:18.940Z,6.50
2023-07-06T17:22:48.533Z,6.70
2023-07-06T17:25:17.159Z,7.03
2023-07-06T17:27:45.541Z,7.25
2023-07-06T17:30:15.187Z,5.55
2023-07-06T17:32:43.277Z,5.68
2023-07-06T17:35:11.561Z,5.45
2023-07-06T17:37:39.561Z,5.38
2023-07-06T17:40:09.191Z,5.32
2023-07-06T17:42:37.129Z,5.65
2023-07-06T17:45:06.141Z,5.05
2023-07-06T17:47:35.439Z,4.63
2023-07-06T17:50:03.733Z,5.43
2023-07-06T17:52:31.707Z,4.53
2023-07-06T17:55:00.122Z,5.85
2023-07-06T17:57:28.092Z,4.75
2023-07-06T17:59:56.309Z,4.45
2023-07-06T18:02:24.415Z,4.90
2023-07-06T18:04:54.147Z,4.93
2023-07-06T18:07:22.085Z,5.60
2023-07-06T18:09:50.306Z,5.65
2023-07-06T18:12:18.253Z,5.38
2023-07-06T18:14:46.699Z,4.80
2023-07-06T18:17:14.661Z,5.03
2023-07-06T18:19:43.043Z,5.93
2023-07-06T18:22:12.452Z,5.75
2023-07-06T18:24:41.223Z,5.55
2023-07-06T18:27:09.292Z,5.45
2023-07-06T18:29:38.133Z,5.65
2023-07-06T18:32:06.959Z,6.35
2023-07-06T18:34:35.220Z,5.97
2023-07-06T18:37:03.460Z,6.25
2023-07-06T18:39:34.723Z,5.38
2023-07-06T18:42:02.893Z,6.17
2023-07-06T18:44:31.175Z,4.95
2023-07-06T18:46:59.232Z,5.60
2023-07-06T18:49:27.399Z,5.97
2023-07-06T18:51:55.864Z,6.05
2023-07-06T18:54:24.143Z,5.28
2023-07-06T18:56:53.407Z,5.93
2023-07-06T18:59:22.665Z,6.38
2023-07-06T19:01:50.746Z,6.78
2023-07-06T19:04:20.085Z,6.30
2023-07-06T19:06:49.102Z,5.80
2023-07-06T19:09:17.674Z,5.82
2023-07-06T19:11:45.608Z,6.30
2023-07-06T19:14:19.811Z,5.90
2023-07-06T19:16:48.159Z,5.88
2023-07-06T19:19:16.807Z,5.63
2023-07-06T19:21:44.796Z,5.47
2023-07-06T19:24:13.573Z,5.57
2023-07-06T19:26:41.708Z,6.25
2023-07-06T19:29:10.387Z,6.75
2023-07-06T19:31:41.593Z,6.70
2023-07-06T19:34:10.089Z,6.60
2023-07-06T19:36:38.364Z,7.00
2023-07-06T19:39:06.588Z,6.75
2023-07-06T19:41:34.532Z,7.10
2023-07-06T19:44:03.155Z,7.57
2023-07-06T19:46:31.140Z,7.13
2023-07-06T19:49:00.723Z,7.50
2023-07-06T19:51:28.685Z,6.90
2023-07-06T19:53:56.920Z,6.57
2023-07-06T19:56:27.477Z,6.43
2023-07-06T19:58:56.195Z,7.18
2023-07-06T20:01:24.650Z,6.90
2023-07-06T20:03:52.932Z,7.32
2023-07-06T20:06:22.212Z,6.85
2023-07-06T20:08:50.446Z,7.22
2023-07-06T20:11:18.430Z,7.60
2023-07-06T20:13:46.769Z,7.22
2023-07-06T20:16:14.923Z,7.45
2023-07-06T20:18:43.249Z,7.60
2023-07-06T20:21:11.193Z,7.32
2023-07-06T20:23:40.939Z,7.18
2023-07-06T20:26:09.913Z,6.93
2023-07-06T20:28:38.127Z,7.15
2023-07-06T20:31:07.918Z,7.35
2023-07-06T20:33:36.178Z,7.72
2023-07-06T20:36:07.951Z,7.82
2023-07-06T20:38:36.918Z,8.07
2023-07-06T20:41:06.428Z,8.15
2023-07-06T20:43:34.770Z,7.57
2023-07-06T20:46:04.906Z,8.63
2023-07-06T20:48:33.213Z,7.10
2023-07-06T20:51:01.508Z,7.72
2023-07-06T20:53:30.018Z,7.47
2023-07-06T20:55:58.129Z,8.20
2023-07-06T20:58:28.014Z,8.30
2023-07-06T21:00:58.071Z,8.48
2023-07-06T21:03:26.738Z,9.07
2023-07-06T21:05:54.732Z,8.98
2023-07-06T21:08:22.951Z,9.00
2023-07-06T21:10:50.905Z,8.73
2023-07-06T21:13:19.143Z,8.80
2023-07-06T21:15:48.462Z,9.82
2023-07-06T21:18:16.865Z,9.57
2023-07-06T21:20:44.845Z,10.18
2023-07-06T21:23:13.076Z,10.40
2023-07-06T21:25:42.542Z,9.82
2023-07-06T21:28:13.301Z,11.25
2023-07-06T21:30:42.148Z,10.73
2023-07-06T21:33:12.438Z,10.18
2023-07-06T21:35:40.609Z,10.43
2023-07-06T21:38:09.740Z,10.18
2023-07-06T21:40:37.788Z,9.63
2023-07-06T21:43:06.986Z,11.25
2023-07-06T21:45:35.075Z,11.25
2023-07-06T21:48:03.573Z,11.75
2023-07-06T21:50:32.880Z,10.27
2023-07-06T21:53:01.061Z,10.70
2023-07-06T21:55:32.596Z,10.05
2023-07-06T21:58:01.111Z,9.95
2023-07-06T22:00:29.447Z,9.02
2023-07-06T22:02:58.143Z,8.23
2023-07-06T22:05:26.208Z,8.98
2023-07-06T22:07:55.760Z,9.52
2023-07-06T22:10:23.843Z,9.52
2023-07-06T22:12:52.050Z,10.23
2023-07-06T22:15:33.160Z,9.68
2023-07-06T22:18:02.580Z,10.05
2023-07-06T22:20:31.699Z,9.77
2023-07-06T22:23:01.610Z,10.20
2023-07-06T22:25:29.535Z,10.25
2023-07-06T22:27:57.781Z,10.50
2023-07-06T22:30:25.814Z,9.73
2023-07-06T22:32:54.066Z,9.77
2023-07-06T22:35:23.811Z,9.50
2023-07-06T22:37:52.502Z,9.77
2023-07-06T22:40:21.764Z,9.98
2023-07-06T22:42:51.054Z,9.93
2023-07-06T22:45:19.003Z,9.18
2023-07-06T22:47:48.886Z,10.52
2023-07-06T22:50:17.286Z,10.50
2023-07-06T22:52:45.762Z,10.05
2023-07-06T22:55:13.936Z,10.10
2023-07-06T22:57:43.601Z,9.38
2023-07-06T23:00:12.484Z,10.48
2023-07-06T23:02:41.227Z,10.43
2023-07-06T23:05:10.734Z,11.00
2023-07-06T23:07:39.353Z,10.68
2023-07-06T23:10:08.553Z,11.38
2023-07-06T23:12:39.553Z,11.70
2023-07-06T23:15:10.582Z,12.55
2023-07-06T23:17:38.949Z,10.70
2023-07-06T23:20:08.740Z,12.38
2023-07-06T23:22:36.936Z,11.20
2023-07-06T23:25:06.680Z,12.23
2023-07-06T23:27:36.141Z,11.02
2023-07-06T23:30:05.555Z,11.27
2023-07-06T23:32:44.498Z,11.45
2023-07-06T23:35:15.694Z,11.45
2023-07-06T23:37:45.939Z,11.90
2023-07-06T23:40:15.027Z,12.10
2023-07-06T23:42:43.313Z,11.85
2023-07-06T23:45:12.066Z,12.07
2023-07-06T23:47:41.751Z,12.35
2023-07-06T23:50:10.432Z,11.48
2023-07-06T23:52:39.052Z,11.40
2023-07-06T23:55:08.082Z,11.52
2023-07-06T23:57:36.332Z,11.65
